Time;durP1;ratioP1;P1;durP2;ratioP2;P2;SDS_P1;SDS_P2;PMS_P1;PMS_P2;Temp;Humidity;BMP_temperature;BMP_pressure;BME280_temperature;BME280_humidity;BME280_pressure;Samples;Min_cycle;Max_cycle;Signal;HPM_P1;HPM_P2
2022/04/16 00:02:22;;;;;;;8.33;4.97;;;;;;;7.78;85.95;100642.44;1736077;82;20950;-46
2022/04/16 00:04:48;;;;;;;11.00;5.92;;;;;;;7.75;86.24;100642.88;1735939;82;20924;-46
2022/04/16 00:07:15;;;;;;;6.03;5.20;;;;;;;7.74;86.36;100644.16;1736049;82;20879;-46
2022/04/16 00:09:43;;;;;;;10.65;5.37;;;;;;;7.71;86.46;100646.33;1735784;82;21514;-46
2022/04/16 00:12:10;;;;;;;12.70;5.85;;;;;;;7.67;86.60;100645.89;1736089;82;20909;-46
2022/04/16 00:14:38;;;;;;;11.28;5.85;;;;;;;7.63;86.70;100631.30;1736151;82;20897;-46
2022/04/16 00:17:06;;;;;;;8.63;4.50;;;;;;;7.61;86.81;100640.34;1736008;82;20965;-46
2022/04/16 00:19:34;;;;;;;8.45;5.65;;;;;;;7.59;87.35;100638.62;1715487;82;20941;-46
2022/04/16 00:22:01;;;;;;;11.90;5.00;;;;;;;7.54;87.46;100642.49;1736080;82;21151;-46
2022/04/16 00:24:28;;;;;;;9.83;5.72;;;;;;;7.51;87.58;100635.23;1735847;82;20928;-46
2022/04/16 00:26:56;;;;;;;14.87;5.70;;;;;;;7.48;87.61;100629.22;1736021;82;21000;-46
2022/04/16 00:29:23;;;;;;;8.43;5.17;;;;;;;7.43;87.86;100636.08;1736032;82;20996;-46
2022/04/16 00:31:50;;;;;;;8.88;5.53;;;;;;;7.40;88.07;100632.67;1714443;82;20936;-46
2022/04/16 00:34:18;;;;;;;11.05;5.83;;;;;;;7.38;88.38;100627.52;1736001;81;21040;-46
2022/04/16 00:36:47;;;;;;;8.53;5.62;;;;;;;7.39;88.39;100620.66;1735900;82;20925;-46
2022/04/16 00:39:15;;;;;;;16.23;5.90;;;;;;;7.41;88.25;100619.78;1735912;82;20933;-46
2022/04/16 00:41:43;;;;;;;12.73;5.60;;;;;;;7.43;88.04;100615.92;1735864;82;20969;-46
2022/04/16 00:44:09;;;;;;;10.80;6.22;;;;;;;7.43;87.99;100619.34;1736146;82;21019;-46
2022/04/16 00:46:36;;;;;;;17.12;6.12;;;;;;;7.39;87.95;100618.92;1736089;82;21135;-46
2022/04/16 00:49:02;;;;;;;6.67;5.80;;;;;;;7.32;88.24;100617.23;1736161;82;21454;-46
2022/04/16 00:51:31;;;;;;;12.03;5.58;;;;;;;7.32;88.46;100618.52;1735949;82;21476;-46
2022/04/16 00:53:57;;;;;;;16.30;6.00;;;;;;;7.30;88.53;100622.38;1736013;82;21012;-46
2022/04/16 00:56:24;;;;;;;8.68;5.75;;;;;;;7.25;88.89;100620.25;1736117;82;20909;-46
2022/04/16 00:58:51;;;;;;;11.70;6.62;;;;;;;7.22;89.08;100611.69;1735992;82;21755;-46
2022/04/16 01:01:17;;;;;;;9.38;6.05;;;;;;;7.20;89.10;100611.68;1735972;82;21538;-46
2022/04/16 01:03:45;;;;;;;10.10;5.35;;;;;;;7.15;89.20;100606.53;1736014;82;20865;-46
2022/04/16 01:06:15;;;;;;;10.10;5.58;;;;;;;7.10;89.22;100600.98;1736006;82;20874;-46
2022/04/16 01:08:44;;;;;;;9.85;5.80;;;;;;;7.04;89.47;100605.26;1735917;81;20917;-46
2022/04/16 01:11:13;;;;;;;9.40;6.05;;;;;;;6.98;89.67;100600.57;1714858;82;21138;-46
2022/04/16 01:13:42;;;;;;;9.45;6.33;;;;;;;6.92;90.11;100597.98;1735864;82;20984;-46
2022/04/16 01:16:10;;;;;;;9.08;6.03;;;;;;;6.89;90.36;100597.58;1735912;82;21511;-46
2022/04/16 01:18:48;;;;;;;11.65;6.28;;;;;;;6.86;90.57;100599.70;1735893;82;20953;-46
2022/04/16 01:21:17;;;;;;;13.32;6.85;;;;;;;6.83;90.66;100597.14;1735948;82;21454;-46
2022/04/16 01:23:43;;;;;;;15.43;7.58;;;;;;;6.79;90.93;100600.99;1735948;82;21232;-46
2022/04/16 01:26:12;;;;;;;7.85;6.30;;;;;;;6.74;91.12;100604.88;1735938;82;21435;-46
2022/04/16 01:28:43;;;;;;;9.58;6.17;;;;;;;6.70;91.17;100605.30;1735890;82;20933;-46
2022/04/16 01:31:10;;;;;;;12.90;6.53;;;;;;;6.66;91.56;100605.28;1740057;81;20956;-46
2022/04/16 01:33:37;;;;;;;11.57;6.25;;;;;;;6.60;91.59;100606.16;1749880;82;20916;-46
2022/04/16 01:36:04;;;;;;;10.58;7.40;;;;;;;6.53;91.91;100605.30;1722307;82;21223;-46
2022/04/16 01:38:31;;;;;;;17.65;6.78;;;;;;;6.46;91.96;100593.30;1749699;81;21568;-45
2022/04/16 01:40:58;;;;;;;9.75;7.00;;;;;;;6.39;92.00;100598.85;1750023;82;20916;-45
2022/04/16 01:43:26;;;;;;;21.62;6.65;;;;;;;6.31;92.31;100596.67;1749829;82;20983;-45
2022/04/16 01:45:53;;;;;;;13.28;6.35;;;;;;;6.27;92.73;100597.53;1749759;81;21038;-45
2022/04/16 01:48:21;;;;;;;14.30;7.12;;;;;;;6.20;93.12;100599.27;1749826;82;22051;-45
2022/04/16 01:50:48;;;;;;;13.15;6.62;;;;;;;6.15;93.46;100581.66;1749733;82;20845;-45
2022/04/16 01:53:16;;;;;;;13.35;9.40;;;;;;;6.09;93.59;100588.95;1749968;82;20932;-45
2022/04/16 01:55:45;;;;;;;14.03;7.17;;;;;;;6.00;93.64;100580.75;1749893;82;20865;-45
2022/04/16 01:58:13;;;;;;;10.40;6.47;;;;;;;5.93;93.88;100582.02;1749922;82;20921;-45
2022/04/16 02:00:39;;;;;;;13.68;6.50;;;;;;;5.88;94.55;100570.43;1749915;82;21137;-45
2022/04/16 02:03:08;;;;;;;10.50;5.70;;;;;;;5.85;95.25;100562.72;1749895;81;20968;-45
2022/04/16 02:05:35;;;;;;;8.95;6.08;;;;;;;5.86;96.09;100565.72;1749946;82;20976;-45
2022/04/16 02:08:02;;;;;;;11.45;6.00;;;;;;;5.89;96.22;100560.58;1749978;82;21514;-45
2022/04/16 02:10:30;;;;;;;9.20;5.20;;;;;;;5.92;96.49;100560.59;1722722;82;20980;-45
2022/04/16 02:12:57;;;;;;;12.30;6.10;;;;;;;5.95;96.79;100554.20;1750085;82;21075;-45
2022/04/16 02:15:24;;;;;;;12.37;5.60;;;;;;;5.99;97.00;100557.61;1722285;82;21396;-45
2022/04/16 02:17:50;;;;;;;10.98;5.62;;;;;;;6.04;96.76;100554.23;1749948;82;21011;-45
2022/04/16 02:20:17;;;;;;;8.35;5.58;;;;;;;6.07;96.66;100557.66;1749940;82;20928;-45
2022/04/16 02:22:46;;;;;;;11.97;5.92;;;;;;;6.06;96.43;100560.64;1749996;82;20968;-45
2022/04/16 02:25:17;;;;;;;10.82;5.78;;;;;;;6.03;96.40;100561.52;1749855;82;20940;-45
2022/04/16 02:27:43;;;;;;;8.80;5.58;;;;;;;5.99;96.34;100559.77;1749813;82;20885;-45
2022/04/16 02:30:12;;;;;;;8.30;5.50;;;;;;;5.96;96.57;100561.46;1749971;82;20991;-45
2022/04/16 02:32:48;;;;;;;10.08;6.00;;;;;;;5.94;96.90;100566.62;1749679;81;20980;-45
2022/04/16 02:35:16;;;;;;;10.35;5.17;;;;;;;5.94;96.89;100556.34;1749853;82;20912;-45
2022/04/16 02:37:45;;;;;;;12.20;5.95;;;;;;;5.89;97.08;100552.88;1749833;82;21981;-45
2022/04/16 02:40:12;;;;;;;15.40;5.70;;;;;;;5.86;97.53;100548.61;1722428;82;21518;-45
2022/04/16 02:42:40;;;;;;;10.15;6.70;;;;;;;5.85;97.75;100552.44;1749934;82;21479;-45
2022/04/16 02:47:58;;;;;;;10.80;5.92;;;;;;;5.88;97.76;100557.17;1726926;82;21477;-45
2022/04/16 02:50:28;;;;;;;9.48;5.58;;;;;;;5.92;97.79;100558.46;1749857;82;21226;-45
2022/04/16 02:52:55;;;;;;;13.18;6.12;;;;;;;5.92;97.79;100545.61;1749964;82;21439;-45
2022/04/16 02:55:24;;;;;;;8.68;5.33;;;;;;;5.89;97.91;100555.03;1749952;82;20878;-45
2022/04/16 02:57:50;;;;;;;11.50;5.87;;;;;;;5.90;98.01;100553.30;1749846;82;20940;-45
2022/04/16 03:00:19;;;;;;;9.03;5.78;;;;;;;5.89;98.01;100549.02;1750061;82;21043;-45
2022/04/16 03:02:49;;;;;;;10.85;5.60;;;;;;;5.88;98.36;100547.30;1750068;82;20920;-45
2022/04/16 03:05:16;;;;;;;13.10;6.28;;;;;;;5.89;98.38;100548.61;1749843;81;20968;-45
2022/04/16 03:07:43;;;;;;;11.65;6.03;;;;;;;5.89;98.40;100550.30;1750061;82;20948;-45
2022/04/16 03:10:11;;;;;;;10.23;5.53;;;;;;;5.91;98.19;100553.73;1749947;82;20948;-45
2022/04/16 03:12:51;;;;;;;6.85;5.37;;;;;;;5.95;98.23;100547.77;1722497;82;20889;-46
2022/04/16 03:18:07;;;;;;;7.92;5.72;;;;;;;6.02;97.94;100570.08;1750112;82;20897;-45
2022/04/16 03:20:37;;;;;;;11.33;6.12;;;;;;;6.10;97.75;100552.11;1750040;82;21055;-45
2022/04/16 03:23:04;;;;;;;15.23;6.03;;;;;;;6.08;97.61;100556.40;1749954;82;20964;-45
2022/04/16 03:25:32;;;;;;;8.15;5.50;;;;;;;6.06;97.66;100558.52;1722631;82;20991;-45
2022/04/16 03:27:59;;;;;;;14.73;6.30;;;;;;;6.04;97.65;100561.08;1749948;82;21150;-45
2022/04/16 03:30:25;;;;;;;11.00;5.28;;;;;;;6.02;97.85;100549.52;1749907;82;20884;-44
2022/04/16 03:32:53;;;;;;;10.95;6.15;;;;;;;6.00;98.04;100543.50;1739030;81;20881;-45
2022/04/16 03:35:22;;;;;;;11.30;5.47;;;;;;;5.99;98.11;100537.05;1736045;82;21409;-45
2022/04/16 03:37:48;;;;;;;8.38;5.80;;;;;;;5.99;98.35;100532.78;1735985;82;21055;-45
2022/04/16 03:40:15;;;;;;;10.38;6.00;;;;;;;5.99;98.37;100540.50;1736087;82;21250;-45
2022/04/16 03:42:52;;;;;;;9.55;5.67;;;;;;;6.00;98.39;100535.78;1736031;82;20976;-45
2022/04/16 03:45:20;;;;;;;6.78;4.65;;;;;;;6.02;98.54;100528.97;1736100;82;21016;-45
2022/04/16 03:47:48;;;;;;;12.47;5.22;;;;;;;6.04;98.51;100531.52;1735974;81;20933;-45
2022/04/16 03:50:18;;;;;;;6.85;4.97;;;;;;;6.07;98.42;100529.39;1735994;82;20925;-44
2022/04/16 03:52:47;;;;;;;11.08;4.97;;;;;;;6.09;98.28;100518.69;1735809;82;21916;-45
2022/04/16 04:00:50;;;;;;;13.75;4.97;;;;;;;6.20;97.93;100529.85;1735950;82;21003;-45
2022/04/16 04:03:16;;;;;;;11.05;5.45;;;;;;;6.27;97.60;100540.56;1736034;82;20878;-46
2022/04/16 04:05:45;;;;;;;6.60;5.15;;;;;;;6.38;97.35;100539.70;1736069;82;21155;-45
2022/04/16 04:08:13;;;;;;;10.95;5.10;;;;;;;6.50;97.06;100533.70;1735944;82;20976;-46
2022/04/16 04:10:40;;;;;;;6.92;4.75;;;;;;;6.61;96.45;100535.41;1735977;82;20964;-46
2022/04/16 04:13:07;;;;;;;10.13;5.15;;;;;;;6.72;96.09;100539.25;1735910;82;20940;-46
2022/04/16 04:15:35;;;;;;;8.88;4.97;;;;;;;6.87;95.64;100539.66;1736081;82;20960;-46
2022/04/16 04:18:03;;;;;;;5.67;4.60;;;;;;;7.04;95.06;100542.20;1736105;82;20941;-46
2022/04/16 04:20:30;;;;;;;4.95;3.85;;;;;;;7.16;94.24;100537.44;1735803;82;20922;-47
2022/04/16 04:22:59;;;;;;;7.08;5.17;;;;;;;7.36;93.22;100547.27;1735982;82;21396;-46
2022/04/16 04:25:26;;;;;;;8.83;4.75;;;;;;;7.50;91.76;100551.08;1735931;82;21491;-46
2022/04/16 04:27:53;;;;;;;8.50;4.40;;;;;;;7.60;90.92;100551.45;1736089;82;20933;-46
2022/04/16 04:30:21;;;;;;;7.78;4.60;;;;;;;7.60;89.65;100551.45;1735939;82;21060;-47
2022/04/16 04:32:49;;;;;;;7.70;4.95;;;;;;;7.66;89.65;100541.56;1717118;82;21522;-47
2022/04/16 04:35:15;;;;;;;8.83;4.70;;;;;;;7.70;89.55;100537.65;1746210;82;20853;-47
2022/04/16 04:37:42;;;;;;;9.65;5.45;;;;;;;7.78;89.51;100538.06;1746165;82;20975;-46
2022/04/16 04:40:10;;;;;;;7.55;4.72;;;;;;;7.76;88.34;100536.35;1746283;82;20984;-47
2022/04/16 04:42:37;;;;;;;10.45;5.60;;;;;;;7.64;88.20;100539.42;1746230;82;21255;-46
2022/04/16 04:45:09;;;;;;;13.30;4.53;;;;;;;7.56;89.08;100548.02;1746217;82;20881;-46
2022/04/16 04:47:35;;;;;;;8.80;5.25;;;;;;;7.58;89.55;100550.19;1746413;82;20981;-47
2022/04/16 04:50:02;;;;;;;11.43;5.42;;;;;;;7.62;89.40;100554.88;1746167;81;20984;-47
2022/04/16 04:52:30;;;;;;;14.65;4.92;;;;;;;7.72;89.05;100555.28;1746329;82;20924;-47
2022/04/16 04:54:58;;;;;;;7.83;5.50;;;;;;;7.72;89.08;100563.01;1717028;82;21079;-47
2022/04/16 04:57:27;;;;;;;6.25;5.15;;;;;;;7.75;88.92;100559.13;1746101;82;21397;-46
2022/04/16 04:59:53;;;;;;;9.80;5.55;;;;;;;7.90;89.38;100563.75;1746081;81;20897;-47
2022/04/16 05:02:20;;;;;;;8.18;5.15;;;;;;;8.07;88.00;100562.81;1746171;82;20944;-47
2022/04/16 05:04:48;;;;;;;11.33;5.65;;;;;;;8.04;87.56;100561.09;1746237;82;20845;-47
2022/04/16 05:07:15;;;;;;;7.78;5.33;;;;;;;8.08;87.70;100551.63;1746329;82;21196;-44
2022/04/16 05:09:43;;;;;;;9.93;5.65;;;;;;;8.17;87.47;100541.23;1746152;81;20980;-47
2022/04/16 05:12:09;;;;;;;7.95;5.08;;;;;;;8.16;86.85;100545.98;1746254;82;20980;-45
2022/04/16 05:14:38;;;;;;;10.28;5.58;;;;;;;8.11;87.26;100546.03;1746219;81;20948;-45
2022/04/16 05:17:05;;;;;;;5.80;5.20;;;;;;;8.15;87.03;100552.00;1746261;82;21482;-47
2022/04/16 05:19:33;;;;;;;8.53;4.97;;;;;;;8.18;87.44;100552.84;1746345;82;20961;-45
2022/04/16 05:22:00;;;;;;;8.03;4.97;;;;;;;8.24;87.37;100546.80;1746284;82;20975;-45
2022/04/16 05:24:28;;;;;;;7.42;5.00;;;;;;;8.34;87.14;100553.59;1746529;81;20849;-45
2022/04/16 05:26:55;;;;;;;7.65;5.47;;;;;;;8.48;87.22;100542.32;1746075;82;21019;-46
2022/04/16 05:29:22;;;;;;;10.32;5.62;;;;;;;8.66;86.33;100543.03;1746286;81;21511;-46
2022/04/16 05:31:50;;;;;;;10.43;6.30;;;;;;;8.62;85.77;100553.39;1745189;81;21035;-46
2022/04/16 05:34:20;;;;;;;11.03;5.40;;;;;;;8.67;85.61;100551.20;1735898;82;20901;-46
2022/04/16 05:36:50;;;;;;;7.60;5.28;;;;;;;8.62;85.01;100555.13;1735912;82;20905;-46
2022/04/16 05:39:17;;;;;;;8.58;6.17;;;;;;;8.45;86.03;100561.66;1714668;82;20929;-45
2022/04/16 05:41:44;;;;;;;10.78;5.62;;;;;;;8.44;86.13;100554.80;1735651;82;20917;-46
2022/04/16 05:44:11;;;;;;;11.30;5.55;;;;;;;8.39;86.73;100555.27;1736024;82;21145;-45
2022/04/16 05:46:37;;;;;;;8.08;5.03;;;;;;;8.44;87.41;100562.53;1735868;82;20874;-45
2022/04/16 05:49:04;;;;;;;8.23;6.10;;;;;;;8.56;87.66;100558.61;1736109;82;20897;-45
2022/04/16 05:51:31;;;;;;;8.08;5.92;;;;;;;8.66;86.81;100558.52;1735876;82;21503;-46
2022/04/16 05:53:58;;;;;;;9.45;6.03;;;;;;;8.65;86.60;100556.81;1736062;82;20922;-45
2022/04/16 05:56:25;;;;;;;9.28;5.47;;;;;;;8.61;86.40;100546.97;1699229;82;21140;-46
2022/04/16 05:58:52;;;;;;;14.07;6.25;;;;;;;8.59;87.08;100541.81;1735921;82;20846;-46
2022/04/16 06:01:18;;;;;;;9.95;5.87;;;;;;;8.65;87.25;100542.62;1735984;82;21015;-45
2022/04/16 06:03:45;;;;;;;10.05;6.03;;;;;;;8.72;87.30;100550.30;1735834;82;20925;-45
2022/04/16 06:06:13;;;;;;;10.95;5.72;;;;;;;8.75;86.70;100560.59;1736020;82;20941;-46
2022/04/16 06:08:40;;;;;;;7.72;5.22;;;;;;;8.81;86.94;100562.27;1735776;82;21101;-46
2022/04/16 06:11:08;;;;;;;8.58;6.33;;;;;;;8.90;86.56;100557.00;1735997;82;20914;-46
2022/04/16 06:13:35;;;;;;;7.42;6.15;;;;;;;8.99;85.49;100560.38;1736010;81;21068;-46
2022/04/16 06:16:03;;;;;;;14.47;5.95;;;;;;;9.01;85.84;100556.05;1736013;82;21487;-46
2022/04/16 06:18:29;;;;;;;6.45;5.58;;;;;;;9.02;85.48;100549.56;1735901;82;21413;-47
2022/04/16 06:20:57;;;;;;;13.10;6.42;;;;;;;9.15;85.93;100553.33;1736001;82;20949;-47
2022/04/16 06:23:24;;;;;;;11.80;5.75;;;;;;;9.34;85.61;100550.09;1735933;82;20937;-46
2022/04/16 06:25:52;;;;;;;10.45;6.10;;;;;;;9.55;84.18;100546.38;1735960;82;20980;-46
2022/04/16 06:28:20;;;;;;;9.70;6.00;;;;;;;9.67;83.45;100551.83;1735815;82;20976;-47
2022/04/16 06:30:46;;;;;;;19.50;5.55;;;;;;;9.76;83.31;100550.43;1735968;82;21015;-47
2022/04/16 06:33:13;;;;;;;11.30;5.87;;;;;;;9.93;82.32;100554.49;1743197;82;21125;-47
2022/04/16 06:35:40;;;;;;;13.18;5.67;;;;;;;10.09;81.14;100551.70;1749837;82;21011;-47
2022/04/16 06:38:07;;;;;;;12.37;5.87;;;;;;;10.06;81.17;100550.87;1749897;82;20896;-47
2022/04/16 06:40:34;;;;;;;12.68;6.78;;;;;;;10.12;80.38;100547.77;1749716;81;21001;-47
2022/04/16 06:43:01;;;;;;;11.90;6.62;;;;;;;10.08;80.05;100548.70;1749952;82;20909;-47
2022/04/16 06:45:29;;;;;;;12.18;5.85;;;;;;;10.10;80.36;100552.11;1749790;82;21238;-47
2022/04/16 06:48:39;;;;;;;11.25;6.10;;;;;;;10.10;80.51;100548.23;1798537;79;22639;-46
2022/04/16 06:51:05;;;;;;;8.70;6.55;;;;;;;10.16;81.56;100557.19;1757991;81;20928;-46
2022/04/16 06:53:32;;;;;;;8.30;6.15;;;;;;;10.32;80.64;100550.91;1758117;81;21057;-47
2022/04/16 06:56:00;;;;;;;33.65;6.75;;;;;;;10.52;80.62;100554.08;1757987;81;20924;-47
2022/04/16 06:58:31;;;;;;;89.83;8.58;;;;;;;10.69;79.82;100546.02;1758138;81;20894;-47
2022/04/16 07:00:59;;;;;;;14.07;5.65;;;;;;;10.90;78.71;100553.86;1757952;81;20995;-46
2022/04/16 07:03:26;;;;;;;9.58;5.75;;;;;;;11.01;77.83;100552.37;1673344;83;20887;-46
2022/04/16 07:05:54;;;;;;;8.15;6.30;;;;;;;11.05;78.04;100550.97;1719976;83;21310;-46
2022/04/16 07:08:22;;;;;;;10.48;5.80;;;;;;;11.05;77.00;100543.20;1724603;83;21502;-47
2022/04/16 07:10:50;;;;;;;9.53;6.00;;;;;;;11.07;77.77;100549.66;1721506;83;20949;-46
2022/04/16 07:13:18;;;;;;;13.40;5.62;;;;;;;11.10;77.08;100550.89;1698553;84;20928;-47
2022/04/16 07:15:45;;;;;;;23.83;6.78;;;;;;;11.15;76.72;100550.81;1716322;83;20944;-47
2022/04/16 07:18:13;;;;;;;10.10;6.33;;;;;;;10.99;77.65;100562.75;1709230;84;21505;-47
2022/04/16 07:20:40;;;;;;;53.33;8.40;;;;;;;11.00;77.78;100561.86;1709195;83;20999;-47
2022/04/16 07:23:07;;;;;;;15.68;6.53;;;;;;;11.05;77.41;100550.97;1709113;84;20924;-48
2022/04/16 07:25:34;;;;;;;8.10;6.55;;;;;;;11.12;78.09;100558.19;1709164;84;20959;-47
2022/04/16 07:28:01;;;;;;;8.18;5.78;;;;;;;11.26;76.44;100555.79;1709003;83;20975;-46
2022/04/16 07:30:28;;;;;;;9.83;5.85;;;;;;;11.10;77.20;100552.19;1709105;84;21241;-47
2022/04/16 07:32:54;;;;;;;13.68;6.85;;;;;;;11.08;77.53;100553.95;1708996;84;20959;-46
2022/04/16 07:35:21;;;;;;;6.70;5.80;;;;;;;11.11;77.53;100555.19;1709128;84;21040;-47
2022/04/16 07:37:48;;;;;;;24.82;7.22;;;;;;;11.12;77.18;100546.99;1709193;83;20963;-47
2022/04/16 07:40:14;;;;;;;33.45;7.30;;;;;;;11.23;78.35;100554.09;1709108;84;21007;-46
2022/04/16 07:42:41;;;;;;;9.18;6.30;;;;;;;11.49;77.62;100556.19;1709056;84;21138;-47
2022/04/16 07:45:09;;;;;;;11.57;5.65;;;;;;;11.63;75.59;100549.41;1709083;84;21066;-47
2022/04/16 07:47:36;;;;;;;9.23;6.53;;;;;;;11.55;76.25;100555.64;1703148;83;21009;-46
2022/04/16 07:50:04;;;;;;;9.55;5.65;;;;;;;11.61;75.55;100554.20;1696570;84;20999;-47
2022/04/16 07:52:30;;;;;;;8.90;6.17;;;;;;;11.54;75.87;100560.41;1688593;84;21012;-47
2022/04/16 07:54:57;;;;;;;37.03;6.95;;;;;;;11.53;75.69;100553.06;1696488;84;21147;-47
2022/04/16 07:57:25;;;;;;;20.30;5.90;;;;;;;11.63;76.99;100552.43;1696473;84;21000;-46
2022/04/16 07:59:54;;;;;;;10.53;6.47;;;;;;;11.89;75.03;100561.38;1695982;84;21015;-47
2022/04/16 08:02:20;;;;;;;8.23;5.85;;;;;;;11.76;74.83;100559.50;1695929;84;21423;-46
2022/04/16 08:04:47;;;;;;;14.60;6.60;;;;;;;11.86;75.77;100564.05;1696001;84;20940;-47
2022/04/16 08:07:15;;;;;;;22.27;7.28;;;;;;;12.02;75.18;100553.78;1695996;83;21210;-46
2022/04/16 08:09:41;;;;;;;22.35;7.05;;;;;;;12.20;74.85;100551.63;1688032;84;21023;-47
2022/04/16 08:12:08;;;;;;;32.05;7.60;;;;;;;12.25;73.63;100552.83;1696160;84;20960;-47
2022/04/16 08:14:35;;;;;;;12.45;6.17;;;;;;;12.25;73.47;100554.98;1695953;83;20886;-47
2022/04/16 08:17:03;;;;;;;8.48;5.78;;;;;;;12.35;72.91;100547.38;1696121;84;21479;-47
2022/04/16 08:19:30;;;;;;;11.45;6.67;;;;;;;12.43;72.74;100548.49;1688228;84;21318;-47
2022/04/16 08:21:57;;;;;;;9.48;5.47;;;;;;;12.55;72.59;100548.63;1695902;84;21047;-47
2022/04/16 08:27:00;;;;;;;12.63;6.25;;;;;;;12.75;71.53;100549.41;1695965;84;21354;-47
2022/04/16 08:29:27;;;;;;;21.20;6.75;;;;;;;12.74;72.03;100549.01;1696065;84;21063;-47
2022/04/16 08:31:54;;;;;;;11.88;6.90;;;;;;;12.93;72.01;100553.27;1695967;84;21010;-47
2022/04/16 08:34:21;;;;;;;55.33;7.85;;;;;;;13.03;71.20;100555.63;1695808;83;21008;-47
2022/04/16 08:36:47;;;;;;;16.00;7.15;;;;;;;13.06;70.70;100535.59;1696479;84;20925;-47
2022/04/16 08:39:15;;;;;;;12.28;6.47;;;;;;;13.17;69.22;100535.30;1695960;84;21015;-47
2022/04/16 08:41:42;;;;;;;13.40;6.12;;;;;;;13.14;70.09;100531.95;1695971;83;20964;-47
2022/04/16 08:44:10;;;;;;;10.60;6.25;;;;;;;13.48;70.37;100533.61;1695897;84;22036;-47
2022/04/16 08:46:36;;;;;;;16.52;7.15;;;;;;;13.96;68.72;100537.36;1695888;84;21047;-47
2022/04/16 08:49:03;;;;;;;11.12;5.85;;;;;;;14.25;66.31;100530.37;1701186;83;20996;-47
2022/04/16 08:51:31;;;;;;;12.68;7.15;;;;;;;14.23;66.54;100524.36;1711120;83;20982;-48
2022/04/16 08:53:58;;;;;;;12.15;5.87;;;;;;;14.21;64.87;100528.34;1701558;84;21023;-47
2022/04/16 08:56:26;;;;;;;9.48;6.05;;;;;;;14.03;66.54;100528.48;1711188;83;21189;-46
2022/04/16 08:58:54;;;;;;;16.12;6.17;;;;;;;14.06;66.88;100527.52;1701511;84;20980;-47
2022/04/16 09:01:20;;;;;;;15.03;5.67;;;;;;;14.11;66.38;100528.21;1711201;83;20940;-46
2022/04/16 09:03:48;;;;;;;10.32;6.12;;;;;;;13.92;68.47;100530.12;1701413;84;21007;-46
2022/04/16 09:06:24;;;;;;;18.98;6.55;;;;;;;13.89;68.62;100533.25;1711230;83;20912;-46
2022/04/16 09:08:50;;;;;;;18.48;6.15;;;;;;;13.91;69.40;100527.55;1701291;84;26460;-47
2022/04/16 09:11:24;;;;;;;12.00;5.72;;;;;;;14.00;68.77;100523.34;1711131;83;20896;-47
2022/04/16 09:13:53;;;;;;;12.82;5.62;;;;;;;13.98;68.56;100526.92;1701357;84;21454;-46
2022/04/16 09:16:21;;;;;;;17.62;7.10;;;;;;;14.20;68.28;100524.47;1711043;83;20987;-47
2022/04/16 09:18:53;;;;;;;9.68;5.92;;;;;;;14.40;67.49;100519.06;1701864;84;20901;-47
2022/04/16 09:21:24;;;;;;;13.45;5.90;;;;;;;14.60;66.28;100517.94;1711149;83;20997;-46
2022/04/16 09:23:54;;;;;;;10.03;6.05;;;;;;;14.89;66.12;100515.23;1676107;84;21046;-47
2022/04/16 09:26:34;;;;;;;24.63;6.75;;;;;;;15.21;64.25;100515.37;1685721;85;21007;-47
2022/04/16 09:29:13;;;;;;;18.48;6.33;;;;;;;15.42;62.86;100507.67;1711121;83;20948;-47
2022/04/16 09:31:41;;;;;;;17.62;6.35;;;;;;;15.59;62.76;100506.19;1700858;84;20997;-47
2022/04/16 09:34:17;;;;;;;9.63;6.00;;;;;;;15.77;62.30;100500.70;1711167;83;21256;-46
2022/04/16 09:36:44;;;;;;;8.10;5.75;;;;;;;15.85;60.26;100505.63;1701351;84;20988;-47
2022/04/16 09:39:12;;;;;;;9.85;5.67;;;;;;;15.64;62.09;100504.24;1711105;83;21031;-46
2022/04/16 09:41:45;;;;;;;14.13;6.40;;;;;;;15.50;62.16;100508.22;1701416;84;20995;-46
2022/04/16 09:44:23;;;;;;;12.68;5.60;;;;;;;15.38;62.93;100515.22;1710962;83;20951;-46
2022/04/16 09:46:50;;;;;;;31.40;7.08;;;;;;;15.22;63.19;100514.95;1701558;84;21788;-47
2022/04/16 09:49:17;;;;;;;9.58;6.03;;;;;;;15.26;64.07;100507.84;1702744;83;20940;-47
2022/04/16 09:51:45;;;;;;;12.35;6.10;;;;;;;15.25;62.07;100515.27;1700948;83;20960;-46
2022/04/16 09:54:13;;;;;;;15.38;6.25;;;;;;;15.09;62.68;100519.76;1711045;83;20900;-47
2022/04/16 09:56:41;;;;;;;8.40;5.92;;;;;;;14.94;63.61;100522.00;1701568;84;21039;-47
2022/04/16 09:59:09;;;;;;;9.45;6.12;;;;;;;15.05;64.36;100520.78;1711158;83;21079;-46
2022/04/16 10:01:43;;;;;;;11.45;6.40;;;;;;;15.28;63.07;100522.97;1701250;84;20948;-47
2022/04/16 10:04:08;;;;;;;17.60;6.12;;;;;;;15.29;63.14;100524.70;1711110;83;22454;-47
2022/04/16 10:06:35;;;;;;;11.60;5.60;;;;;;;15.27;62.92;100514.75;1701479;84;21447;-49
2022/04/16 10:09:13;;;;;;;12.07;6.15;;;;;;;15.42;63.56;100508.97;1711104;83;21062;-48
2022/04/16 10:14:22;;;;;;;10.18;6.08;;;;;;;15.84;62.31;100515.66;1711126;83;21350;-47
2022/04/16 10:17:39;;;;;;;25.27;6.47;;;;;;;16.22;61.39;100511.98;1701500;84;20931;-48
2022/04/16 10:20:09;;;;;;;12.27;6.37;;;;;;;16.27;59.21;100512.63;1685971;85;20918;-48
2022/04/16 10:22:36;;;;;;;12.53;6.47;;;;;;;16.15;60.30;100516.59;1711230;82;21502;-48
2022/04/16 10:25:06;;;;;;;11.38;7.30;;;;;;;16.03;60.81;100513.20;1701581;84;21021;-48
2022/04/16 10:27:40;;;;;;;9.35;6.25;;;;;;;15.94;61.41;100516.58;1711098;83;21514;-48
2022/04/16 10:30:12;;;;;;;13.22;6.45;;;;;;;15.80;61.27;100518.40;1701412;84;21069;-48
2022/04/16 10:32:42;;;;;;;10.28;6.45;;;;;;;15.45;61.81;100523.67;1711033;82;20948;-48
2022/04/16 10:35:16;;;;;;;27.45;7.20;;;;;;;15.09;61.95;100532.80;1701280;84;20980;-45
2022/04/16 10:37:47;;;;;;;11.28;6.30;;;;;;;14.72;62.85;100522.34;1710581;83;21284;-47
2022/04/16 10:40:22;;;;;;;13.03;6.70;;;;;;;14.41;64.92;100522.06;1682550;85;20935;-46
2022/04/16 10:43:01;;;;;;;10.30;6.05;;;;;;;14.46;65.90;100524.92;1711019;83;21327;-47
2022/04/16 10:45:27;;;;;;;10.60;7.15;;;;;;;14.69;65.29;100520.69;1701236;84;20917;-46
2022/04/16 10:47:57;;;;;;;12.75;6.58;;;;;;;14.99;64.84;100521.84;1710891;83;20979;-46
2022/04/16 10:50:24;;;;;;;10.35;7.00;;;;;;;15.30;63.79;100526.40;1699996;84;21874;-47
2022/04/16 10:52:56;;;;;;;10.95;6.45;;;;;;;15.24;63.04;100526.16;1695707;84;20964;-47
2022/04/16 10:55:30;;;;;;;9.80;6.47;;;;;;;15.20;63.19;100533.23;1695858;83;21019;-47
2022/04/16 10:58:04;;;;;;;10.00;6.17;;;;;;;15.07;63.50;100530.70;1695905;84;21008;-47
2022/04/16 11:00:44;;;;;;;14.63;6.72;;;;;;;14.68;64.87;100528.55;1695361;84;20968;-47
2022/04/16 11:03:17;;;;;;;15.28;7.25;;;;;;;14.29;66.70;100533.30;1695278;84;21179;-47
2022/04/16 11:05:43;;;;;;;14.75;6.92;;;;;;;14.14;67.39;100534.62;1695750;83;20988;-47
2022/04/16 11:08:13;;;;;;;17.80;7.28;;;;;;;14.15;68.41;100535.48;1666559;84;20984;-47
2022/04/16 11:10:41;;;;;;;15.58;7.37;;;;;;;14.30;68.45;100524.59;1695698;84;21043;-47
2022/04/16 11:13:11;;;;;;;20.80;7.78;;;;;;;14.67;68.37;100513.38;1695894;84;20945;-47
2022/04/16 11:15:41;;;;;;;10.48;7.30;;;;;;;15.21;67.32;100512.77;1695944;84;21384;-47
2022/04/16 11:18:09;;;;;;;11.93;7.47;;;;;;;15.58;64.52;100517.53;1695847;84;20965;-50
2022/04/16 11:20:36;;;;;;;12.85;6.83;;;;;;;15.50;63.69;100515.21;1695862;84;21027;-48
2022/04/16 11:23:10;;;;;;;16.77;7.00;;;;;;;15.21;64.06;100511.47;1695901;84;20972;-49
2022/04/16 11:34:20;;;;;;;15.72;6.92;;;;;;;14.92;67.06;100500.35;1695929;84;21019;-48
2022/04/16 11:36:50;;;;;;;25.95;7.35;;;;;;;15.16;66.09;100500.37;1696078;84;20928;-49
2022/04/16 11:39:24;;;;;;;18.12;6.70;;;;;;;15.42;66.29;100497.23;1666280;84;20964;-49
2022/04/16 11:41:53;;;;;;;14.45;6.15;;;;;;;15.64;64.28;100491.20;1695936;83;21222;-48
2022/04/16 11:44:41;;;;;;;44.77;7.25;;;;;;;15.78;64.03;100495.40;1696081;84;20968;-49
2022/04/16 11:47:27;;;;;;;12.68;5.80;;;;;;;16.18;64.63;100502.14;1695995;84;20987;-48
2022/04/16 11:50:01;;;;;;;13.10;6.40;;;;;;;16.74;62.15;100489.78;1695988;84;20925;-48
2022/04/16 11:52:31;;;;;;;12.20;5.58;;;;;;;16.76;59.79;100493.17;1695990;83;21000;-48
2022/04/16 11:55:10;;;;;;;23.12;5.62;;;;;;;16.69;60.54;100490.45;1696128;84;21138;-48
2022/04/16 11:57:37;;;;;;;10.03;5.40;;;;;;;16.92;60.65;100492.03;1695097;84;20901;-47